createdAt,value
2019-01-13T00:01:58.645Z,17.20
2019-01-13T00:04:29.295Z,16.43
2019-01-13T00:06:59.782Z,13.83
2019-01-13T00:09:30.235Z,14.60
2019-01-13T00:12:00.798Z,13.63
2019-01-13T00:14:31.321Z,15.00
2019-01-13T00:17:01.912Z,12.80
2019-01-13T00:19:32.596Z,14.50
2019-01-13T00:22:03.008Z,13.03
2019-01-13T00:24:33.562Z,14.50
2019-01-13T00:27:04.067Z,17.33
2019-01-13T00:29:34.757Z,17.83
2019-01-13T00:32:07.516Z,16.97
2019-01-13T00:34:38.035Z,15.53
2019-01-13T00:37:08.483Z,14.53
2019-01-13T00:39:40.707Z,13.60
2019-01-13T00:42:13.245Z,13.37
2019-01-13T00:44:43.942Z,11.87
2019-01-13T00:47:14.647Z,15.30
2019-01-13T00:49:45.248Z,12.97
2019-01-13T00:52:15.738Z,17.80
2019-01-13T00:54:46.271Z,17.93
2019-01-13T00:57:19.766Z,16.20
2019-01-13T00:59:50.479Z,16.83
2019-01-13T01:02:22.827Z,10.90
2019-01-13T01:04:53.390Z,14.43
2019-01-13T01:07:24.192Z,11.83
2019-01-13T01:09:54.968Z,13.37
2019-01-13T01:12:25.360Z,17.80
2019-01-13T01:14:55.775Z,14.37
2019-01-13T01:17:26.622Z,19.07
2019-01-13T01:19:57.062Z,17.53
2019-01-13T01:22:27.593Z,15.47
2019-01-13T01:24:58.209Z,14.80
2019-01-13T01:27:28.866Z,16.50
2019-01-13T01:29:59.415Z,16.40
2019-01-13T01:32:30.273Z,17.00
2019-01-13T01:35:00.827Z,17.97
2019-01-13T01:37:31.514Z,19.37
2019-01-13T01:40:04.724Z,18.10
2019-01-13T01:42:35.506Z,19.57
2019-01-13T01:45:07.604Z,18.73
2019-01-13T01:47:38.328Z,15.47
2019-01-13T01:50:10.058Z,19.00
2019-01-13T01:52:40.866Z,16.83
2019-01-13T01:55:15.171Z,17.90
2019-01-13T01:57:46.009Z,20.03
2019-01-13T02:00:21.797Z,13.73
2019-01-13T02:02:53.050Z,19.20
2019-01-13T02:05:23.595Z,16.70
2019-01-13T02:07:54.173Z,17.87
2019-01-13T02:10:24.665Z,18.33
2019-01-13T02:12:55.474Z,17.80
2019-01-13T02:15:27.611Z,18.00
2019-01-13T02:17:58.409Z,18.70
2019-01-13T02:20:29.261Z,20.70
2019-01-13T02:22:59.980Z,18.37
2019-01-13T02:25:30.989Z,18.10
2019-01-13T02:28:01.580Z,13.70
2019-01-13T02:30:32.112Z,18.27
2019-01-13T02:33:02.881Z,14.40
2019-01-13T02:35:34.331Z,14.87
2019-01-13T02:38:06.562Z,12.30
2019-01-13T02:40:39.371Z,13.87
2019-01-13T02:43:09.953Z,11.03
2019-01-13T02:45:41.493Z,9.53
2019-01-13T02:48:12.161Z,14.50
2019-01-13T02:50:44.459Z,9.43
2019-01-13T02:53:15.117Z,9.77
2019-01-13T02:55:45.777Z,10.30
2019-01-13T02:58:16.244Z,10.23
2019-01-13T03:00:57.023Z,10.87
2019-01-13T03:03:23.977Z,10.30
2019-01-13T03:05:55.348Z,11.27
2019-01-13T03:08:26.015Z,9.40
2019-01-13T03:10:56.657Z,10.47
2019-01-13T03:13:27.330Z,8.57
2019-01-13T03:15:57.934Z,8.70
2019-01-13T03:18:28.740Z,8.60
2019-01-13T03:21:01.573Z,10.40
2019-01-13T03:23:33.958Z,10.33
2019-01-13T03:26:04.669Z,11.57
2019-01-13T03:28:36.064Z,12.20
2019-01-13T03:31:11.823Z,10.20
2019-01-13T03:33:41.336Z,11.73
2019-01-13T03:36:12.053Z,12.57
2019-01-13T03:38:48.771Z,14.60
2019-01-13T03:41:20.443Z,10.93
2019-01-13T03:43:51.337Z,11.00
2019-01-13T03:46:22.157Z,11.10
2019-01-13T03:48:52.861Z,13.17
2019-01-13T03:51:23.461Z,11.10
2019-01-13T03:53:54.403Z,9.97
2019-01-13T03:56:24.865Z,10.87
2019-01-13T03:58:55.621Z,12.30
2019-01-13T04:01:26.290Z,8.97
2019-01-13T04:03:57.230Z,9.37
2019-01-13T04:06:27.757Z,8.97
2019-01-13T04:08:58.875Z,9.47
2019-01-13T04:11:29.580Z,11.00
2019-01-13T04:14:00.233Z,9.57
2019-01-13T04:16:31.065Z,8.33
2019-01-13T04:19:02.099Z,9.77
2019-01-13T04:21:32.698Z,9.70
2019-01-13T04:24:03.443Z,8.77
2019-01-13T04:26:34.037Z,9.70
2019-01-13T04:29:04.949Z,8.47
2019-01-13T04:31:35.758Z,9.37
2019-01-13T04:34:06.761Z,8.83
2019-01-13T04:36:37.443Z,8.43
2019-01-13T04:39:08.837Z,12.53
2019-01-13T04:41:39.561Z,11.20
2019-01-13T04:44:12.797Z,9.47
2019-01-13T04:46:45.944Z,9.83
2019-01-13T04:49:16.799Z,9.87
2019-01-13T04:51:47.451Z,10.07
2019-01-13T04:54:21.262Z,9.70
2019-01-13T04:56:52.196Z,10.60
2019-01-13T04:59:22.908Z,9.77
2019-01-13T05:01:53.762Z,10.00
2019-01-13T05:04:27.235Z,11.00
2019-01-13T05:06:58.846Z,11.17
2019-01-13T05:09:29.579Z,11.13
2019-01-13T05:12:00.291Z,12.93
2019-01-13T05:14:31.198Z,11.70
2019-01-13T05:17:02.123Z,13.00
2019-01-13T05:19:33.745Z,11.13
2019-01-13T05:22:05.275Z,13.67
2019-01-13T05:24:38.251Z,10.07
2019-01-13T05:27:10.250Z,11.00
2019-01-13T05:29:54.676Z,10.97
2019-01-13T05:32:35.997Z,10.43
2019-01-13T05:35:28.596Z,9.77
2019-01-13T05:38:25.517Z,9.23
2019-01-13T05:41:32.441Z,11.03
2019-01-13T05:50:33.850Z,11.23
2019-01-13T05:53:55.860Z,10.17
2019-01-13T06:00:47.983Z,10.27
2019-01-13T06:03:45.958Z,9.47
2019-01-13T06:06:18.205Z,9.17
2019-01-13T06:08:50.390Z,8.93
2019-01-13T06:11:20.952Z,7.73
2019-01-13T06:13:51.292Z,8.63
2019-01-13T06:16:23.551Z,9.10
2019-01-13T06:18:53.991Z,8.73
2019-01-13T06:21:24.648Z,8.93
2019-01-13T06:24:01.242Z,7.60
2019-01-13T06:26:31.827Z,7.73
2019-01-13T06:29:02.279Z,7.07
2019-01-13T06:31:32.806Z,6.27
2019-01-13T06:34:03.423Z,5.33
2019-01-13T06:36:34.054Z,6.67
2019-01-13T06:39:09.621Z,5.77
2019-01-13T06:41:40.999Z,6.07
2019-01-13T06:44:11.631Z,5.93
2019-01-13T06:46:42.755Z,6.50
2019-01-13T06:49:14.487Z,6.00
2019-01-13T06:51:54.736Z,5.03
2019-01-13T06:54:25.650Z,6.97
2019-01-13T06:56:57.880Z,6.47
2019-01-13T06:59:31.638Z,5.53
2019-01-13T07:02:05.139Z,5.60
2019-01-13T07:04:35.831Z,5.53
2019-01-13T07:07:06.283Z,4.20
2019-01-13T07:09:36.862Z,4.27
2019-01-13T07:12:07.353Z,4.97
2019-01-13T07:14:37.707Z,5.07
2019-01-13T07:17:13.261Z,4.33
2019-01-13T07:19:45.335Z,5.33
2019-01-13T07:22:15.809Z,3.10
2019-01-13T07:24:50.411Z,4.27
2019-01-13T07:27:20.888Z,4.00
2019-01-13T07:29:53.110Z,4.70
2019-01-13T07:32:23.701Z,5.20
2019-01-13T07:34:54.180Z,4.37
2019-01-13T07:37:24.989Z,3.53
2019-01-13T07:39:55.518Z,1.50
2019-01-13T07:42:26.547Z,1.73
2019-01-13T07:44:57.107Z,1.30
2019-01-13T07:47:39.302Z,1.47
2019-01-13T07:50:11.714Z,1.30
2019-01-13T07:52:43.493Z,1.00
2019-01-13T07:55:16.140Z,1.00
2019-01-13T07:57:52.840Z,0.70
2019-01-13T08:00:25.826Z,1.10
2019-01-13T08:02:56.667Z,1.30
2019-01-13T08:05:27.159Z,1.10
2019-01-13T08:07:57.774Z,1.20
2019-01-13T08:10:34.795Z,1.43
2019-01-13T08:13:05.569Z,1.30
2019-01-13T08:15:39.032Z,1.27
2019-01-13T08:18:09.828Z,1.40
2019-01-13T08:20:40.487Z,1.20
2019-01-13T08:23:11.207Z,1.30
2019-01-13T08:25:44.106Z,1.23
2019-01-13T08:28:17.220Z,1.50
2019-01-13T08:30:48.598Z,1.50
2019-01-13T08:33:19.191Z,2.40
2019-01-13T08:35:49.568Z,1.73
2019-01-13T08:38:20.350Z,1.67
2019-01-13T08:40:51.951Z,2.07
2019-01-13T08:43:22.651Z,2.37
2019-01-13T08:45:53.151Z,2.33
2019-01-13T08:48:24.074Z,1.90
2019-01-13T08:50:54.448Z,2.23
2019-01-13T08:53:28.074Z,1.87
2019-01-13T08:55:58.962Z,1.30
2019-01-13T08:58:29.691Z,2.10
2019-01-13T09:01:00.120Z,2.70
2019-01-13T09:03:30.660Z,1.30
2019-01-13T09:06:01.303Z,0.90
2019-01-13T09:08:31.839Z,0.40
2019-01-13T09:11:02.369Z,0.77
2019-01-13T09:13:34.467Z,0.60
2019-01-13T09:16:05.018Z,1.10
2019-01-13T09:18:35.627Z,1.13
2019-01-13T09:21:09.051Z,1.07
2019-01-13T09:23:40.282Z,1.67
2019-01-13T09:26:16.004Z,1.50
2019-01-13T09:28:46.843Z,1.10
2019-01-13T09:31:17.456Z,1.13
2019-01-13T09:33:47.851Z,1.50
2019-01-13T09:36:18.263Z,1.40
2019-01-13T09:38:49.206Z,1.40
2019-01-13T09:41:19.635Z,1.67
2019-01-13T09:43:50.251Z,0.97
2019-01-13T09:46:22.472Z,1.00
2019-01-13T09:48:54.075Z,2.07
2019-01-13T09:51:26.332Z,3.20
2019-01-13T09:53:57.150Z,1.13
2019-01-13T09:56:29.641Z,1.20
2019-01-13T09:59:00.195Z,1.37
2019-01-13T10:01:30.886Z,2.60
2019-01-13T10:04:01.551Z,1.83
2019-01-13T10:06:32.076Z,1.23
2019-01-13T10:09:02.861Z,1.53
2019-01-13T10:11:35.747Z,2.27
2019-01-13T10:14:09.550Z,0.40
2019-01-13T10:16:40.523Z,0.63
2019-01-13T10:19:11.050Z,0.80
2019-01-13T10:21:44.031Z,0.50
2019-01-13T10:24:14.458Z,0.50
2019-01-13T10:26:44.930Z,3.47
2019-01-13T10:29:15.405Z,4.97
2019-01-13T10:31:46.047Z,3.53
2019-01-13T10:34:16.731Z,1.77
2019-01-13T10:36:47.220Z,0.90
2019-01-13T10:39:18.047Z,1.20
2019-01-13T10:41:48.523Z,0.90
2019-01-13T10:44:18.882Z,1.30
2019-01-13T10:46:49.415Z,1.60
2019-01-13T10:49:20.036Z,2.20
2019-01-13T10:51:53.230Z,2.03
2019-01-13T10:54:24.072Z,1.43
2019-01-13T10:56:54.614Z,3.23
2019-01-13T10:59:25.069Z,2.47
2019-01-13T11:01:57.343Z,2.70
2019-01-13T11:04:27.891Z,1.63
2019-01-13T11:06:58.499Z,1.67
2019-01-13T11:09:29.437Z,1.70
2019-01-13T11:12:01.649Z,2.40
2019-01-13T11:14:32.143Z,2.67
2019-01-13T11:17:02.583Z,2.80
2019-01-13T11:19:39.282Z,2.80
2019-01-13T11:22:20.163Z,2.80
2019-01-13T11:24:51.408Z,2.93
2019-01-13T11:27:23.047Z,2.83
2019-01-13T11:29:56.103Z,2.50
2019-01-13T11:32:39.473Z,1.80
2019-01-13T11:35:11.643Z,2.80
2019-01-13T11:37:42.288Z,1.50
2019-01-13T11:54:17.253Z,1.37
2019-01-13T11:56:48.630Z,1.10
2019-01-13T11:59:19.223Z,1.00
2019-01-13T12:01:55.223Z,1.20
2019-01-13T12:07:22.992Z,1.60
2019-01-13T12:09:55.083Z,1.10
2019-01-13T12:12:25.612Z,1.93
2019-01-13T12:14:56.079Z,1.40
2019-01-13T12:17:26.826Z,0.70
2019-01-13T12:19:57.311Z,1.80
2019-01-13T12:22:27.903Z,1.40
2019-01-13T12:24:58.807Z,2.60
2019-01-13T12:27:29.686Z,1.47
2019-01-13T12:30:00.235Z,1.70
2019-01-13T12:32:30.762Z,2.60
2019-01-13T12:43:46.591Z,2.60
2019-01-13T12:46:51.781Z,2.63
2019-01-13T12:49:27.263Z,2.73
2019-01-13T12:51:58.630Z,2.87
2019-01-13T12:54:29.175Z,2.20
2019-01-13T12:57:00.235Z,2.37
2019-01-13T13:22:44.070Z,3.10
2019-01-13T13:25:34.523Z,2.37
2019-01-13T13:28:06.036Z,2.77
2019-01-13T13:30:41.683Z,2.20
2019-01-13T13:33:29.528Z,3.10
2019-01-13T13:36:04.186Z,3.43
2019-01-13T13:38:40.686Z,2.47
2019-01-13T13:41:31.899Z,2.60
2019-01-13T13:44:15.477Z,2.63
2019-01-13T13:47:09.563Z,3.23
2019-01-13T13:49:53.409Z,2.90
2019-01-13T13:52:57.022Z,2.63
2019-01-13T13:55:52.254Z,2.87
2019-01-13T13:59:28.008Z,3.37
2019-01-13T14:02:14.266Z,3.13
2019-01-13T14:04:52.331Z,3.33
2019-01-13T14:07:38.953Z,4.03
2019-01-13T14:10:24.968Z,3.33
2019-01-13T14:19:45.654Z,3.30
2019-01-13T14:22:16.665Z,3.97
2019-01-13T14:24:52.319Z,3.70
2019-01-13T14:27:29.777Z,4.23
2019-01-13T14:30:00.971Z,3.40
2019-01-13T14:32:39.046Z,4.73
2019-01-13T14:35:09.778Z,4.13
2019-01-13T14:37:42.139Z,3.07
2019-01-13T14:40:20.441Z,3.17
2019-01-13T14:42:50.922Z,2.47
2019-01-13T14:45:28.454Z,1.83
2019-01-13T14:47:59.695Z,2.37
2019-01-13T14:50:37.422Z,2.20
2019-01-13T14:53:23.730Z,2.60
2019-01-13T14:55:56.244Z,2.37
2019-01-13T14:58:32.347Z,1.73
2019-01-13T15:01:06.175Z,1.60
2019-01-13T15:03:36.763Z,1.53
2019-01-13T15:06:07.195Z,1.63
2019-01-13T15:08:38.137Z,2.03
2019-01-13T15:11:08.755Z,2.50
2019-01-13T15:13:39.364Z,1.63
2019-01-13T15:16:12.871Z,2.13
2019-01-13T15:18:43.430Z,2.07
2019-01-13T15:25:51.062Z,2.53
2019-01-13T15:35:38.515Z,3.17
2019-01-13T15:38:15.441Z,4.30
2019-01-13T15:40:46.710Z,2.13
2019-01-13T15:43:20.411Z,3.57
2019-01-13T15:45:58.143Z,1.70
2019-01-13T15:49:14.559Z,3.07
2019-01-13T15:51:50.508Z,3.47
2019-01-13T15:54:26.179Z,3.53
2019-01-13T15:57:14.218Z,3.60
2019-01-13T15:59:47.965Z,3.20
2019-01-13T16:02:23.275Z,3.30
2019-01-13T16:04:55.339Z,4.07
2019-01-13T16:07:29.401Z,3.17
2019-01-13T16:10:03.716Z,3.30
2019-01-13T16:12:34.469Z,2.57
2019-01-13T16:15:07.872Z,2.47
2019-01-13T16:17:39.678Z,2.83
2019-01-13T16:20:19.763Z,2.33
2019-01-13T16:22:50.177Z,2.50
2019-01-13T16:25:20.819Z,2.30
2019-01-13T16:27:55.166Z,2.67
2019-01-13T16:30:27.508Z,2.80
2019-01-13T16:33:00.394Z,4.40
2019-01-13T16:35:33.696Z,7.33
2019-01-13T16:38:06.872Z,10.63
2019-01-13T16:40:37.487Z,5.17
2019-01-13T16:43:11.334Z,6.43
2019-01-13T16:45:41.856Z,2.47
2019-01-13T16:48:16.347Z,6.03
2019-01-13T16:50:46.893Z,2.77
2019-01-13T16:53:20.535Z,2.43
2019-01-13T16:55:51.123Z,10.13
2019-01-13T16:58:21.947Z,3.67
2019-01-13T17:00:54.171Z,2.77
2019-01-13T17:03:25.413Z,2.60
2019-01-13T17:05:57.607Z,1.43
2019-01-13T17:08:32.952Z,1.70
2019-01-13T17:11:06.485Z,1.30
2019-01-13T17:14:20.371Z,1.00
2019-01-13T17:16:50.896Z,0.80
2019-01-13T17:19:23.416Z,1.57
2019-01-13T17:21:53.880Z,0.97
2019-01-13T17:24:25.239Z,1.03
2019-01-13T17:26:55.788Z,1.00
2019-01-13T17:29:30.956Z,1.80
2019-01-13T17:32:04.578Z,1.00
2019-01-13T17:34:35.989Z,0.70
2019-01-13T17:37:07.097Z,1.40
2019-01-13T17:39:39.610Z,0.80
2019-01-13T17:42:10.065Z,1.13
2019-01-13T17:44:41.723Z,0.93
2019-01-13T17:47:19.094Z,1.03
2019-01-13T17:49:54.470Z,0.87
2019-01-13T17:52:44.889Z,0.80
2019-01-13T17:55:33.717Z,0.83
2019-01-13T17:58:14.405Z,0.70
2019-01-13T18:02:02.938Z,0.80
2019-01-13T18:04:54.839Z,0.50
2019-01-13T18:08:01.365Z,0.50
2019-01-13T18:10:32.176Z,0.50
2019-01-13T18:16:21.552Z,0.60
2019-01-13T18:19:28.697Z,0.50
2019-01-13T18:22:40.140Z,0.60
2019-01-13T18:25:42.158Z,0.40
2019-01-13T18:28:13.072Z,0.50
2019-01-13T18:34:18.048Z,0.50
2019-01-13T18:36:48.729Z,0.40
2019-01-13T18:39:23.863Z,0.30
2019-01-13T18:41:55.711Z,0.50
2019-01-13T18:44:36.176Z,0.27
2019-01-13T18:47:26.418Z,0.40
2019-01-13T18:54:21.291Z,0.20
2019-01-13T18:57:03.998Z,0.50
2019-01-13T19:00:17.897Z,0.20
2019-01-13T19:03:14.013Z,0.40
2019-01-13T19:14:07.445Z,0.30
2019-01-13T19:23:21.323Z,0.40
2019-01-13T19:25:51.999Z,0.37
2019-01-13T19:28:23.685Z,0.30
2019-01-13T19:30:54.259Z,0.20
2019-01-13T19:33:25.384Z,0.20
2019-01-13T19:35:55.902Z,0.30
2019-01-13T19:38:26.708Z,0.30
2019-01-13T19:40:57.198Z,0.37
2019-01-13T19:43:33.089Z,0.40
2019-01-13T19:46:08.408Z,0.50
2019-01-13T19:48:39.276Z,0.40
2019-01-13T19:51:09.952Z,0.50
2019-01-13T19:53:40.645Z,3.13
2019-01-13T19:56:11.133Z,3.10
2019-01-13T19:58:45.102Z,1.17
2019-01-13T20:01:15.604Z,0.40
2019-01-13T20:03:46.420Z,0.40
2019-01-13T20:06:22.195Z,0.40
2019-01-13T20:09:03.811Z,0.50
2019-01-13T20:11:35.627Z,0.30
2019-01-13T20:14:11.220Z,0.40
2019-01-13T20:16:43.218Z,0.60
2019-01-13T20:19:14.017Z,0.23
2019-01-13T20:21:44.653Z,0.30
2019-01-13T20:24:15.436Z,0.30
2019-01-13T20:26:47.052Z,0.20
2019-01-13T20:29:17.620Z,0.30
2019-01-13T20:31:48.271Z,0.30
2019-01-13T20:34:20.861Z,0.40
2019-01-13T20:36:52.492Z,0.30
2019-01-13T20:39:23.147Z,0.30
2019-01-13T20:41:53.698Z,0.20
2019-01-13T20:44:24.321Z,0.20
2019-01-13T20:46:55.888Z,0.20
2019-01-13T20:49:26.499Z,0.10
2019-01-13T20:51:57.127Z,0.20
2019-01-13T20:54:28.001Z,0.20
2019-01-13T20:56:58.456Z,0.10
2019-01-13T20:59:29.265Z,0.10
2019-01-13T21:02:01.165Z,0.20
2019-01-13T21:04:31.949Z,0.13
2019-01-13T21:07:02.590Z,0.10
2019-01-13T21:09:33.267Z,0.20
2019-01-13T21:12:06.890Z,0.20
2019-01-13T21:14:37.580Z,0.20
2019-01-13T21:17:08.808Z,0.20
2019-01-13T21:19:42.354Z,0.10
2019-01-13T21:22:13.056Z,0.10
2019-01-13T21:24:45.185Z,0.10
2019-01-13T21:27:15.722Z,0.10
2019-01-13T21:29:47.488Z,0.10
2019-01-13T21:32:18.133Z,0.20
2019-01-13T21:34:51.169Z,0.10
2019-01-13T21:37:21.872Z,0.10
2019-01-13T21:39:52.625Z,0.20
2019-01-13T21:42:23.595Z,0.10
2019-01-13T21:44:54.441Z,0.30
2019-01-13T21:47:25.040Z,0.20
2019-01-13T21:49:58.656Z,0.10
2019-01-13T21:52:29.628Z,0.20
2019-01-13T21:55:00.342Z,0.10
2019-01-13T21:57:33.060Z,0.10
2019-01-13T22:00:04.208Z,0.20
2019-01-13T22:02:34.808Z,0.10
2019-01-13T22:05:10.848Z,0.20
2019-01-13T22:07:41.905Z,0.10
2019-01-13T22:10:15.046Z,0.07
2019-01-13T22:12:45.610Z,0.17
2019-01-13T22:15:17.780Z,0.10
2019-01-13T22:17:48.431Z,0.10
2019-01-13T22:20:21.101Z,0.10
2019-01-13T22:22:52.111Z,0.40
2019-01-13T22:25:22.791Z,0.10
2019-01-13T22:27:56.686Z,0.10
2019-01-13T22:30:27.226Z,0.20
2019-01-13T22:32:58.168Z,0.10
2019-01-13T22:35:28.965Z,0.10
2019-01-13T22:37:59.910Z,0.10
2019-01-13T22:40:33.637Z,0.10
2019-01-13T22:43:04.545Z,0.10
2019-01-13T22:45:35.288Z,0.10
2019-01-13T22:48:07.441Z,0.10
2019-01-13T22:50:38.201Z,0.50
2019-01-13T22:53:10.025Z,0.20
2019-01-13T22:55:40.688Z,0.70
2019-01-13T22:58:11.824Z,1.33
2019-01-13T23:01:07.046Z,0.73
2019-01-13T23:03:40.946Z,0.10
2019-01-13T23:06:14.101Z,0.10
2019-01-13T23:08:44.776Z,0.10
2019-01-13T23:11:17.086Z,0.10
2019-01-13T23:13:49.655Z,0.10
2019-01-13T23:16:20.431Z,0.10
2019-01-13T23:18:51.966Z,0.17
2019-01-13T23:21:27.926Z,0.20
2019-01-13T23:24:01.344Z,0.10
2019-01-13T23:26:31.940Z,0.10
2019-01-13T23:29:02.562Z,0.13
2019-01-13T23:31:34.175Z,0.10
2019-01-13T23:34:06.386Z,0.10
2019-01-13T23:36:37.383Z,0.20
2019-01-13T23:39:10.287Z,0.10
2019-01-13T23:41:41.046Z,0.10
2019-01-13T23:44:12.092Z,0.20
2019-01-13T23:46:42.767Z,0.20
2019-01-13T23:49:13.492Z,0.10
2019-01-13T23:51:46.510Z,0.20
2019-01-13T23:54:19.936Z,0.20
2019-01-13T23:56:50.651Z,0.20
2019-01-13T23:59:21.129Z,0.10
